Time;durP1;ratioP1;P1;durP2;ratioP2;P2;SDS_P1;SDS_P2;PMS_P1;PMS_P2;Temp;Humidity;BMP_temperature;BMP_pressure;BME280_temperature;BME280_humidity;BME280_pressure;Samples;Min_cycle;Max_cycle;Signal;HPM_P1;HPM_P2
2023/08/12 00:00:29;;;;;;;10.03;7.10;;;21.60;73.50;;;;;;5001383;28;20462;-79
2023/08/12 00:02:55;;;;;;;13.97;6.50;;;21.60;73.00;;;;;;4992103;28;20508;-80
2023/08/12 00:05:21;;;;;;;11.40;7.73;;;21.70;72.60;;;;;;4992496;28;20455;-79
2023/08/12 00:07:46;;;;;;;10.60;6.80;;;21.70;72.70;;;;;;4994953;28;20220;-80
2023/08/12 00:10:12;;;;;;;8.13;6.20;;;21.60;72.70;;;;;;4995895;28;20214;-79
2023/08/12 00:12:40;;;;;;;12.77;7.73;;;21.60;72.70;;;;;;4984414;28;20629;-80
2023/08/12 00:15:08;;;;;;;12.10;6.90;;;21.60;72.70;;;;;;4994349;28;20672;-81
2023/08/12 00:17:35;;;;;;;9.37;6.87;;;21.50;73.20;;;;;;4996964;28;20555;-82
2023/08/12 00:20:05;;;;;;;13.60;6.80;;;21.40;73.60;;;;;;4990697;28;20548;-80
2023/08/12 00:22:30;;;;;;;11.63;6.27;;;21.30;73.70;;;;;;4986250;28;20427;-80
2023/08/12 00:24:56;;;;;;;10.97;7.60;;;21.30;74.00;;;;;;4991168;28;20519;-80
2023/08/12 00:27:22;;;;;;;10.30;7.07;;;21.20;74.20;;;;;;4997162;28;20189;-80
2023/08/12 00:29:48;;;;;;;10.97;7.53;;;21.10;74.30;;;;;;4995885;28;20201;-80
2023/08/12 00:32:13;;;;;;;7.30;6.03;;;21.10;74.50;;;;;;4987794;28;20216;-80
2023/08/12 00:34:39;;;;;;;10.50;6.87;;;21.00;74.90;;;;;;4990975;28;20424;-82
2023/08/12 00:37:04;;;;;;;11.00;6.47;;;21.00;74.80;;;;;;4991474;28;20220;-79
2023/08/12 00:39:30;;;;;;;9.83;7.20;;;21.10;74.50;;;;;;4998343;28;20669;-81
2023/08/12 00:41:55;;;;;;;9.33;6.67;;;21.10;74.30;;;;;;4989192;28;20601;-79
2023/08/12 00:44:21;;;;;;;8.97;6.80;;;21.10;74.30;;;;;;4996652;28;20200;-80
2023/08/12 00:46:48;;;;;;;10.57;6.60;;;21.10;74.30;;;;;;5000250;28;20222;-80
2023/08/12 00:49:14;;;;;;;16.00;7.10;;;21.10;74.50;;;;;;5009914;28;20205;-77
2023/08/12 00:51:43;;;;;;;8.90;6.47;;;21.10;74.80;;;;;;5001682;28;20460;-80
2023/08/12 00:54:14;;;;;;;9.33;6.37;;;21.20;74.30;;;;;;4996952;28;20420;-80
2023/08/12 00:56:40;;;;;;;11.43;6.87;;;21.20;74.00;;;;;;4996273;28;20915;-80
2023/08/12 00:59:08;;;;;;;12.53;6.80;;;21.20;74.20;;;;;;4996502;28;20432;-80
2023/08/12 01:01:35;;;;;;;9.77;6.30;;;21.10;74.30;;;;;;4993529;28;20472;-80
2023/08/12 01:04:01;;;;;;;10.40;6.77;;;21.10;74.50;;;;;;4989551;28;20461;-79
2023/08/12 01:06:27;;;;;;;9.27;6.63;;;21.10;74.60;;;;;;4996919;28;20474;-80
2023/08/12 01:08:53;;;;;;;8.17;5.97;;;21.10;74.80;;;;;;4991387;28;20224;-81
2023/08/12 01:11:45;;;;;;;7.83;6.30;;;21.20;74.80;;;;;;4994958;28;20456;-80
2023/08/12 01:14:13;;;;;;;9.47;6.90;;;21.20;74.60;;;;;;5009531;28;20439;-80
2023/08/12 01:16:43;;;;;;;11.10;6.67;;;21.20;74.50;;;;;;4998682;28;20484;-79
2023/08/12 01:19:16;;;;;;;9.83;6.67;;;21.30;74.00;;;;;;4999176;28;20500;-80
2023/08/12 01:21:44;;;;;;;9.20;6.40;;;21.30;73.90;;;;;;4992186;28;20455;-80
2023/08/12 01:24:10;;;;;;;9.70;6.50;;;21.20;73.90;;;;;;4985435;28;20435;-80
2023/08/12 01:26:36;;;;;;;10.73;6.97;;;21.20;73.90;;;;;;4996599;28;20436;-80
2023/08/12 01:29:03;;;;;;;9.37;6.77;;;21.10;73.90;;;;;;4995476;28;20209;-80
2023/08/12 01:31:55;;;;;;;10.20;6.67;;;21.10;74.00;;;;;;4990000;28;20219;-80
2023/08/12 01:34:35;;;;;;;12.13;7.20;;;21.10;74.00;;;;;;4990109;28;20440;-80
2023/08/12 01:37:05;;;;;;;9.00;7.00;;;21.00;74.30;;;;;;5000633;28;20913;-80
2023/08/12 01:39:33;;;;;;;9.87;6.90;;;21.10;74.00;;;;;;5005607;28;20452;-80
2023/08/12 01:42:00;;;;;;;10.97;6.73;;;21.00;74.20;;;;;;4998227;28;20489;-79
2023/08/12 01:44:26;;;;;;;10.70;6.90;;;21.00;74.30;;;;;;4994995;28;20431;-80
2023/08/12 01:46:51;;;;;;;8.97;7.03;;;21.00;74.50;;;;;;4994599;28;20427;-80
2023/08/12 01:49:17;;;;;;;9.43;6.67;;;21.00;74.60;;;;;;5007523;28;20188;-80
2023/08/12 01:51:42;;;;;;;9.80;6.47;;;21.10;74.30;;;;;;4999843;28;20220;-80
2023/08/12 01:54:08;;;;;;;10.80;6.70;;;21.10;74.00;;;;;;4996268;28;20249;-80
2023/08/12 01:56:35;;;;;;;10.70;7.23;;;21.20;73.90;;;;;;5003359;28;20248;-81
2023/08/12 01:59:01;;;;;;;10.60;7.10;;;21.10;73.90;;;;;;4992822;28;20209;-80
2023/08/12 02:01:26;;;;;;;10.00;6.77;;;21.10;73.90;;;;;;4996251;28;20886;-81
2023/08/12 02:03:52;;;;;;;11.93;7.10;;;21.20;73.60;;;;;;5003493;28;20189;-79
2023/08/12 02:06:17;;;;;;;9.93;6.93;;;21.20;73.50;;;;;;5009787;28;20269;-80
2023/08/12 02:08:43;;;;;;;10.40;6.77;;;21.20;73.60;;;;;;4991234;28;20212;-79
2023/08/12 02:11:09;;;;;;;13.30;8.10;;;21.20;73.50;;;;;;4993225;28;20213;-79
2023/08/12 02:13:35;;;;;;;9.77;6.37;;;21.30;73.20;;;;;;4990031;28;20248;-81
2023/08/12 02:16:01;;;;;;;10.20;7.03;;;21.30;73.00;;;;;;4995662;28;20247;-79
2023/08/12 02:18:26;;;;;;;12.57;7.40;;;21.30;73.20;;;;;;4995077;28;20510;-80
2023/08/12 02:20:52;;;;;;;8.77;6.13;;;21.20;73.50;;;;;;4992895;28;20267;-80
2023/08/12 02:23:18;;;;;;;8.83;6.70;;;21.30;73.50;;;;;;4989833;28;20200;-80
2023/08/12 02:25:44;;;;;;;10.00;7.17;;;21.30;73.30;;;;;;4991854;28;20218;-80
2023/08/12 02:28:10;;;;;;;16.17;7.30;;;21.30;73.30;;;;;;4994716;28;20189;-80
2023/08/12 02:30:35;;;;;;;10.50;6.80;;;21.40;73.00;;;;;;4991748;28;20546;-80
2023/08/12 02:33:01;;;;;;;10.50;6.90;;;21.40;72.90;;;;;;4990071;28;20200;-79
2023/08/12 02:35:26;;;;;;;9.53;7.37;;;21.40;73.00;;;;;;4994388;28;20196;-79
2023/08/12 02:37:52;;;;;;;10.57;7.10;;;21.40;72.70;;;;;;5000444;28;20287;-80
2023/08/12 02:40:18;;;;;;;9.87;7.37;;;21.40;72.90;;;;;;5000996;28;20251;-80
2023/08/12 02:42:43;;;;;;;8.30;6.70;;;21.40;73.00;;;;;;4990223;28;20559;-80
2023/08/12 02:45:09;;;;;;;13.90;7.10;;;21.50;72.70;;;;;;5000122;28;20211;-80
2023/08/12 02:47:35;;;;;;;11.87;7.70;;;21.50;72.70;;;;;;5004253;28;20190;-80
2023/08/12 02:50:00;;;;;;;14.10;7.47;;;21.50;72.40;;;;;;4997110;28;20668;-80
2023/08/12 02:52:26;;;;;;;12.53;7.10;;;21.50;72.30;;;;;;4991519;28;20205;-80
2023/08/12 02:54:51;;;;;;;9.80;6.63;;;21.50;72.30;;;;;;4993272;28;20184;-80
2023/08/12 02:57:17;;;;;;;10.60;7.00;;;21.50;72.40;;;;;;5005587;28;20212;-81
2023/08/12 02:59:43;;;;;;;8.67;6.50;;;21.60;72.10;;;;;;4999609;28;20190;-81
2023/08/12 03:02:08;;;;;;;8.60;7.00;;;21.50;72.30;;;;;;4988107;28;20196;-80
2023/08/12 03:04:34;;;;;;;8.77;6.80;;;21.60;72.30;;;;;;4996592;28;20188;-80
2023/08/12 03:06:59;;;;;;;10.33;7.20;;;21.50;72.30;;;;;;4997215;28;20182;-81
2023/08/12 03:09:25;;;;;;;11.43;6.70;;;21.50;72.40;;;;;;4999971;28;20235;-80
2023/08/12 03:11:51;;;;;;;13.17;6.93;;;21.50;72.40;;;;;;5008841;28;20198;-81
2023/08/12 03:14:17;;;;;;;11.77;7.20;;;21.50;72.40;;;;;;5007743;28;20479;-79
2023/08/12 03:16:43;;;;;;;9.87;6.97;;;21.50;72.40;;;;;;5001415;28;20268;-81
2023/08/12 03:19:09;;;;;;;13.63;7.17;;;21.40;72.30;;;;;;4997245;28;20680;-81
2023/08/12 03:21:35;;;;;;;10.67;6.23;;;21.40;72.40;;;;;;4987469;28;20533;-82
2023/08/12 03:24:00;;;;;;;9.33;6.47;;;21.30;72.70;;;;;;4994427;28;20587;-82
2023/08/12 03:26:26;;;;;;;10.07;7.17;;;21.40;72.70;;;;;;4998769;28;20200;-81
2023/08/12 03:28:52;;;;;;;10.40;6.80;;;21.30;73.00;;;;;;4996426;28;20186;-80
2023/08/12 03:31:17;;;;;;;9.83;6.80;;;21.30;73.20;;;;;;4996717;28;20492;-80
2023/08/12 03:33:43;;;;;;;11.00;7.00;;;21.30;73.30;;;;;;5004633;28;20190;-81
2023/08/12 03:36:09;;;;;;;9.40;7.10;;;21.30;73.50;;;;;;4999481;28;20188;-81
2023/08/12 03:38:35;;;;;;;9.53;7.33;;;21.40;73.50;;;;;;5013756;28;20235;-79
2023/08/12 03:41:02;;;;;;;10.77;7.27;;;21.40;73.30;;;;;;4997795;28;20398;-81
2023/08/12 03:43:27;;;;;;;9.60;6.80;;;21.40;73.30;;;;;;4991262;28;20878;-81
2023/08/12 03:45:53;;;;;;;11.97;7.23;;;21.50;73.20;;;;;;5006603;28;20528;-82
2023/08/12 03:48:19;;;;;;;10.33;7.40;;;21.60;72.70;;;;;;4995801;28;20233;-80
2023/08/12 03:50:46;;;;;;;10.20;6.10;;;21.60;72.30;;;;;;4991557;28;20218;-81
2023/08/12 03:53:12;;;;;;;10.73;6.63;;;21.70;71.80;;;;;;4987748;28;20220;-80
2023/08/12 03:55:38;;;;;;;10.33;7.20;;;21.70;71.70;;;;;;4996776;28;20757;-79
2023/08/12 03:58:04;;;;;;;15.03;7.83;;;21.70;71.70;;;;;;5019425;28;20474;-80
2023/08/12 04:00:30;;;;;;;9.17;6.73;;;21.60;72.00;;;;;;5005934;28;20201;-79
2023/08/12 04:02:56;;;;;;;11.43;7.73;;;21.60;72.10;;;;;;5014021;28;20442;-79
2023/08/12 04:05:22;;;;;;;12.07;7.30;;;21.60;72.10;;;;;;5008137;28;20972;-78
2023/08/12 04:07:47;;;;;;;10.20;7.07;;;21.60;72.40;;;;;;5012194;28;20183;-80
2023/08/12 04:10:13;;;;;;;11.33;7.43;;;21.60;72.40;;;;;;5012422;28;21616;-80
2023/08/12 04:12:41;;;;;;;9.40;6.93;;;21.60;72.40;;;;;;5005247;28;20203;-79
2023/08/12 04:15:08;;;;;;;10.47;7.10;;;21.60;72.70;;;;;;5011892;28;20193;-79
2023/08/12 04:17:33;;;;;;;11.93;7.77;;;21.70;72.10;;;;;;5015972;28;20559;-80
2023/08/12 04:19:59;;;;;;;9.50;7.10;;;21.80;72.00;;;;;;5008540;28;20457;-80
2023/08/12 04:22:24;;;;;;;10.53;6.70;;;21.80;72.00;;;;;;5008425;28;20207;-81
2023/08/12 04:24:51;;;;;;;11.30;8.00;;;21.70;72.10;;;;;;5028093;28;20241;-81
2023/08/12 04:27:16;;;;;;;9.73;7.00;;;21.70;72.10;;;;;;5007020;28;20263;-81
2023/08/12 04:29:42;;;;;;;9.50;6.57;;;21.70;72.30;;;;;;5002718;28;20433;-79
2023/08/12 04:32:08;;;;;;;10.70;7.03;;;21.80;72.40;;;;;;5001195;28;20280;-80
2023/08/12 04:34:35;;;;;;;9.83;7.10;;;21.80;72.30;;;;;;4997808;28;20461;-80
2023/08/12 04:37:00;;;;;;;11.27;7.37;;;21.90;71.70;;;;;;4998417;28;20426;-81
2023/08/12 04:39:27;;;;;;;9.27;6.97;;;21.80;71.70;;;;;;4999340;28;20429;-80
2023/08/12 04:41:52;;;;;;;8.97;7.40;;;21.90;71.70;;;;;;4996184;28;20460;-80
2023/08/12 04:44:18;;;;;;;10.23;7.27;;;21.90;71.70;;;;;;5002532;28;20248;-79
2023/08/12 04:46:43;;;;;;;9.47;6.53;;;21.90;71.60;;;;;;5000850;28;20347;-82
2023/08/12 04:49:09;;;;;;;11.13;7.17;;;21.90;71.60;;;;;;4998529;28;20699;-80
2023/08/12 04:51:35;;;;;;;12.23;8.53;;;21.90;71.70;;;;;;4991897;28;20231;-80
2023/08/12 04:54:02;;;;;;;12.77;7.80;;;22.00;71.60;;;;;;4997944;28;20202;-81
2023/08/12 04:56:30;;;;;;;12.87;7.10;;;21.90;71.70;;;;;;5009675;28;20213;-80
2023/08/12 04:58:57;;;;;;;9.53;7.00;;;22.00;71.80;;;;;;5007314;28;20458;-80
2023/08/12 05:01:23;;;;;;;10.53;7.33;;;22.00;71.80;;;;;;4997128;28;20476;-79
2023/08/12 05:03:48;;;;;;;12.60;7.43;;;22.00;71.80;;;;;;4989642;28;20522;-80
2023/08/12 05:06:14;;;;;;;10.30;7.33;;;22.00;71.60;;;;;;5004886;28;20673;-79
2023/08/12 05:08:39;;;;;;;10.27;7.30;;;21.90;72.00;;;;;;5005956;28;20191;-80
2023/08/12 05:11:05;;;;;;;9.53;6.50;;;22.00;72.00;;;;;;4994273;28;20210;-81
2023/08/12 05:13:31;;;;;;;8.90;6.63;;;22.00;72.00;;;;;;4991868;28;20270;-80
2023/08/12 05:15:56;;;;;;;16.80;7.30;;;22.00;71.70;;;;;;5006093;28;20186;-81
2023/08/12 05:18:26;;;;;;;10.63;7.10;;;21.90;72.10;;;;;;5000096;28;20485;-80
2023/08/12 05:20:54;;;;;;;8.63;6.40;;;22.00;72.30;;;;;;4996371;28;20272;-81
2023/08/12 05:23:21;;;;;;;9.23;7.00;;;22.00;72.60;;;;;;5003436;28;20433;-79
2023/08/12 05:25:46;;;;;;;9.70;7.00;;;22.10;72.10;;;;;;5009864;28;20193;-79
2023/08/12 05:28:12;;;;;;;10.20;7.07;;;22.20;71.80;;;;;;5011699;28;20438;-80
2023/08/12 05:30:38;;;;;;;9.80;7.87;;;22.30;71.70;;;;;;5005147;28;20241;-80
2023/08/12 05:33:04;;;;;;;11.13;7.43;;;22.20;71.30;;;;;;4998903;28;20189;-80
2023/08/12 05:35:34;;;;;;;10.70;7.23;;;22.00;71.80;;;;;;5006036;28;20463;-80
2023/08/12 05:38:00;;;;;;;9.60;7.20;;;22.10;71.60;;;;;;4999120;28;20468;-81
2023/08/12 05:40:26;;;;;;;15.57;7.73;;;22.20;71.30;;;;;;4996974;28;20495;-80
2023/08/12 05:42:51;;;;;;;12.10;7.60;;;22.30;71.60;;;;;;4992902;28;20505;-81
2023/08/12 05:45:17;;;;;;;10.07;7.10;;;22.40;71.70;;;;;;5016118;28;20303;-80
2023/08/12 05:47:43;;;;;;;8.87;7.00;;;22.40;71.80;;;;;;4994653;28;20300;-81
2023/08/12 05:50:08;;;;;;;10.33;7.87;;;22.40;72.40;;;;;;4993372;28;20766;-80
2023/08/12 05:52:34;;;;;;;9.33;7.03;;;22.40;72.40;;;;;;4994380;28;20252;-81
2023/08/12 05:55:00;;;;;;;9.73;7.23;;;22.30;72.70;;;;;;5004442;28;20193;-80
2023/08/12 05:57:25;;;;;;;12.43;7.53;;;22.40;73.30;;;;;;5007996;28;20214;-81
2023/08/12 05:59:52;;;;;;;12.07;8.33;;;22.40;73.20;;;;;;5001267;28;20177;-82
2023/08/12 06:02:18;;;;;;;12.57;8.00;;;22.30;73.60;;;;;;5010454;28;20193;-81
2023/08/12 06:04:44;;;;;;;11.30;8.83;;;22.30;74.20;;;;;;4992303;28;20440;-79
2023/08/12 06:07:09;;;;;;;13.80;7.80;;;22.10;74.60;;;;;;4994359;28;20445;-80
2023/08/12 06:09:35;;;;;;;12.27;8.30;;;22.10;75.40;;;;;;4995289;28;20293;-81
2023/08/12 06:12:01;;;;;;;10.90;7.90;;;22.20;74.80;;;;;;4990592;28;20234;-81
2023/08/12 06:14:27;;;;;;;11.40;8.10;;;22.10;74.50;;;;;;4993131;28;20657;-82
2023/08/12 06:16:53;;;;;;;9.93;7.73;;;22.10;75.20;;;;;;4993019;28;20189;-79
2023/08/12 06:19:20;;;;;;;12.50;7.10;;;22.00;75.70;;;;;;4999284;28;20449;-81
2023/08/12 06:21:45;;;;;;;9.10;7.40;;;22.20;75.10;;;;;;4998500;28;20224;-80
2023/08/12 06:24:11;;;;;;;10.87;7.63;;;22.30;73.70;;;;;;5000766;28;20809;-80
2023/08/12 06:26:36;;;;;;;14.53;7.63;;;22.30;74.00;;;;;;5007187;28;20196;-81
2023/08/12 06:29:02;;;;;;;11.87;7.27;;;22.40;74.50;;;;;;4999926;28;20191;-81
2023/08/12 06:31:28;;;;;;;16.23;8.50;;;22.50;74.50;;;;;;4992847;28;20220;-80
2023/08/12 06:33:53;;;;;;;11.97;8.40;;;22.50;74.00;;;;;;4991128;28;20209;-80
2023/08/12 06:36:19;;;;;;;11.60;7.50;;;22.50;73.70;;;;;;4996764;28;20224;-79
2023/08/12 06:38:44;;;;;;;11.73;7.63;;;22.50;73.90;;;;;;4999149;28;20291;-77
2023/08/12 06:41:10;;;;;;;10.17;7.10;;;22.50;74.20;;;;;;4988848;28;20233;-81
2023/08/12 06:43:36;;;;;;;10.33;7.03;;;22.50;74.20;;;;;;4992970;28;20182;-80
2023/08/12 06:46:01;;;;;;;9.60;7.37;;;22.60;73.60;;;;;;5009589;28;20227;-80
2023/08/12 06:48:28;;;;;;;14.20;8.03;;;22.60;73.50;;;;;;4995304;28;20182;-81
2023/08/12 06:50:55;;;;;;;11.87;7.57;;;22.60;73.20;;;;;;4989645;28;20720;-80
2023/08/12 06:53:21;;;;;;;8.80;6.97;;;22.70;73.60;;;;;;4989895;28;20849;-81
2023/08/12 06:55:48;;;;;;;9.23;7.60;;;22.60;73.60;;;;;;4997275;28;20425;-81
2023/08/12 06:58:17;;;;;;;9.93;7.20;;;22.70;73.90;;;;;;4988543;28;20221;-79
2023/08/12 07:00:42;;;;;;;10.93;6.87;;;22.70;74.50;;;;;;4990055;28;20470;-80
2023/08/12 07:03:09;;;;;;;13.43;8.33;;;22.90;73.70;;;;;;4989568;28;20792;-81
2023/08/12 07:05:34;;;;;;;11.23;7.20;;;23.10;72.60;;;;;;4996813;28;20193;-79
2023/08/12 07:08:00;;;;;;;10.10;7.60;;;23.10;72.40;;;;;;4996942;28;20473;-80
2023/08/12 07:10:25;;;;;;;8.73;7.13;;;23.20;72.40;;;;;;5000864;28;20211;-80
2023/08/12 07:12:51;;;;;;;10.97;8.17;;;23.40;72.30;;;;;;4990066;28;20266;-81
2023/08/12 07:15:16;;;;;;;11.67;7.20;;;23.50;71.30;;;;;;4995990;28;20186;-80
2023/08/12 07:17:42;;;;;;;12.40;8.43;;;23.60;70.50;;;;;;5000090;28;20249;-80
2023/08/12 07:20:08;;;;;;;11.00;8.10;;;23.60;70.50;;;;;;4995532;28;20309;-80
2023/08/12 07:22:33;;;;;;;10.40;7.50;;;23.70;70.40;;;;;;4998668;28;20189;-81
2023/08/12 07:25:02;;;;;;;11.97;8.00;;;23.80;70.40;;;;;;5003406;28;20252;-79
2023/08/12 07:27:28;;;;;;;11.03;7.80;;;23.90;70.10;;;;;;5010667;28;20191;-81
2023/08/12 07:29:53;;;;;;;11.30;6.97;;;24.10;70.10;;;;;;5003321;28;20513;-81
2023/08/12 07:32:19;;;;;;;12.10;8.47;;;24.20;68.90;;;;;;4999371;28;20202;-79
2023/08/12 07:34:45;;;;;;;13.50;8.97;;;24.30;68.30;;;;;;5002234;28;20193;-79
2023/08/12 07:37:11;;;;;;;13.70;8.50;;;24.20;68.60;;;;;;5010098;28;20249;-80
2023/08/12 07:39:37;;;;;;;13.13;9.07;;;24.30;68.30;;;;;;5013527;28;20428;-81
2023/08/12 07:42:03;;;;;;;13.20;8.13;;;24.10;68.90;;;;;;4998716;28;20245;-80
2023/08/12 07:44:29;;;;;;;10.13;7.70;;;24.30;68.30;;;;;;5004623;28;20194;-80
2023/08/12 07:46:55;;;;;;;11.73;7.60;;;24.40;68.50;;;;;;5008638;28;20462;-81
2023/08/12 07:49:21;;;;;;;11.37;7.57;;;24.50;68.20;;;;;;5004208;28;20214;-81
2023/08/12 07:51:46;;;;;;;9.30;7.30;;;24.60;68.00;;;;;;4996307;28;20658;-80
2023/08/12 07:54:12;;;;;;;24.30;9.47;;;24.60;67.90;;;;;;5000497;28;20441;-81
2023/08/12 07:56:38;;;;;;;10.00;8.60;;;24.60;67.60;;;;;;5005619;28;20196;-83
2023/08/12 07:59:03;;;;;;;10.90;8.23;;;24.50;67.30;;;;;;5001525;28;20225;-81
2023/08/12 08:01:29;;;;;;;13.87;9.03;;;24.70;67.50;;;;;;4995456;28;20251;-81
2023/08/12 08:03:55;;;;;;;12.33;8.47;;;24.70;67.20;;;;;;4989171;28;20241;-81
2023/08/12 08:06:23;;;;;;;13.57;9.13;;;24.50;67.90;;;;;;5004134;28;20603;-83
2023/08/12 08:08:49;;;;;;;13.70;8.50;;;24.40;67.70;;;;;;5001979;28;20182;-82
2023/08/12 08:11:15;;;;;;;12.03;7.30;;;24.50;67.70;;;;;;4998700;28;20469;-81
2023/08/12 08:13:41;;;;;;;9.93;7.13;;;24.60;67.70;;;;;;4998913;28;20772;-80
2023/08/12 08:16:06;;;;;;;10.80;7.73;;;24.80;67.30;;;;;;5004155;28;20486;-81
2023/08/12 08:18:32;;;;;;;11.20;8.60;;;25.10;67.00;;;;;;4999890;28;20223;-81
2023/08/12 08:20:58;;;;;;;14.30;9.40;;;25.20;66.10;;;;;;4993001;28;20238;-82
2023/08/12 08:23:23;;;;;;;14.07;8.33;;;25.40;65.80;;;;;;4988616;28;20629;-82
2023/08/12 08:25:49;;;;;;;17.70;9.00;;;25.60;65.70;;;;;;4994807;28;20211;-80
2023/08/12 08:28:14;;;;;;;12.20;8.10;;;25.60;65.60;;;;;;4997317;28;20188;-80
2023/08/12 08:30:40;;;;;;;16.60;8.67;;;25.60;65.40;;;;;;4997816;28;20349;-81
2023/08/12 08:33:06;;;;;;;13.67;9.07;;;25.50;65.40;;;;;;4989791;28;20190;-81
2023/08/12 08:35:31;;;;;;;13.00;8.80;;;25.60;65.30;;;;;;4995483;28;20185;-81
2023/08/12 08:37:58;;;;;;;13.80;7.90;;;25.70;64.70;;;;;;4997682;28;20252;-82
2023/08/12 08:40:26;;;;;;;11.80;7.87;;;25.70;64.80;;;;;;4999259;28;20267;-82
2023/08/12 08:42:53;;;;;;;14.80;8.50;;;25.90;64.40;;;;;;4985030;28;20433;-81
2023/08/12 08:45:21;;;;;;;10.23;8.00;;;26.10;64.10;;;;;;4992921;28;20709;-80
2023/08/12 08:47:49;;;;;;;10.50;8.00;;;26.20;63.90;;;;;;4992104;28;20433;-81
2023/08/12 08:50:15;;;;;;;14.23;8.63;;;26.30;63.80;;;;;;4997720;28;20513;-80
2023/08/12 08:52:43;;;;;;;15.67;8.87;;;26.30;63.50;;;;;;4991351;28;20462;-82
2023/08/12 08:55:09;;;;;;;17.00;9.53;;;26.20;63.70;;;;;;5002533;28;20432;-81
2023/08/12 08:57:37;;;;;;;12.20;9.40;;;26.20;63.80;;;;;;5011634;28;20472;-82
2023/08/12 09:00:10;;;;;;;10.80;8.50;;;26.30;63.70;;;;;;5004814;28;20449;-80
2023/08/12 09:02:37;;;;;;;10.53;8.57;;;26.20;63.70;;;;;;5000692;28;20503;-81
2023/08/12 09:05:04;;;;;;;16.70;9.10;;;26.50;63.20;;;;;;5012463;28;20445;-81
2023/08/12 09:07:31;;;;;;;11.20;9.43;;;26.60;62.80;;;;;;5009418;28;20425;-81
2023/08/12 09:09:59;;;;;;;12.03;8.80;;;26.60;62.80;;;;;;5007491;28;20429;-82
2023/08/12 09:12:25;;;;;;;13.07;9.00;;;26.60;62.60;;;;;;5000669;28;20490;-82
2023/08/12 09:14:51;;;;;;;12.77;9.20;;;26.80;62.30;;;;;;4999932;28;20500;-81
2023/08/12 09:17:17;;;;;;;16.03;9.43;;;26.90;61.90;;;;;;5000195;28;20479;-82
2023/08/12 09:19:42;;;;;;;14.57;8.90;;;26.90;61.70;;;;;;4993930;28;20192;-83
2023/08/12 09:22:11;;;;;;;11.57;8.10;;;27.00;61.70;;;;;;4989888;28;20213;-80
2023/08/12 09:24:37;;;;;;;11.43;8.53;;;27.00;61.30;;;;;;4990243;28;20193;-81
2023/08/12 09:27:03;;;;;;;13.70;8.83;;;27.20;61.00;;;;;;4998197;28;20431;-80
2023/08/12 09:29:33;;;;;;;11.57;8.50;;;27.30;61.00;;;;;;4997843;28;20221;-81
2023/08/12 09:32:12;;;;;;;13.90;8.03;;;27.40;60.70;;;;;;5003226;28;20481;-80
2023/08/12 09:34:51;;;;;;;10.37;7.40;;;27.70;60.10;;;;;;5000115;28;20427;-80
2023/08/12 09:37:18;;;;;;;13.23;7.83;;;28.00;59.60;;;;;;4993549;28;20489;-82
2023/08/12 09:39:48;;;;;;;9.67;7.67;;;28.20;58.90;;;;;;4992962;28;20430;-82
2023/08/12 09:42:14;;;;;;;11.27;7.87;;;28.20;59.50;;;;;;4996822;28;20430;-81
2023/08/12 09:44:40;;;;;;;10.20;8.10;;;28.40;59.20;;;;;;4990031;28;20411;-80
2023/08/12 09:47:08;;;;;;;8.10;6.57;;;28.60;59.30;;;;;;4999376;28;20410;-81
2023/08/12 09:49:35;;;;;;;10.13;5.40;;;29.00;58.50;;;;;;4997745;28;20894;-81
2023/08/12 09:52:02;;;;;;;8.17;5.80;;;29.20;57.40;;;;;;4986379;28;20496;-81
2023/08/12 09:54:31;;;;;;;7.70;5.50;;;29.50;56.40;;;;;;5009004;28;20433;-81
2023/08/12 09:56:59;;;;;;;5.90;4.47;;;29.80;56.10;;;;;;4999270;28;20587;-81
2023/08/12 09:59:32;;;;;;;4.50;3.93;;;30.10;54.00;;;;;;5004764;28;20456;-81
2023/08/12 10:01:58;;;;;;;7.97;4.43;;;30.30;53.30;;;;;;5001667;28;20477;-81
2023/08/12 10:04:28;;;;;;;5.57;4.00;;;30.30;53.40;;;;;;5001150;28;20448;-81
2023/08/12 10:06:55;;;;;;;8.47;5.43;;;30.20;53.40;;;;;;5004608;28;20512;-82
2023/08/12 10:09:21;;;;;;;8.87;6.60;;;30.00;55.00;;;;;;5006407;28;20551;-82
2023/08/12 10:11:47;;;;;;;9.23;5.17;;;29.30;58.90;;;;;;4995974;28;20466;-82
2023/08/12 10:14:14;;;;;;;12.50;5.90;;;28.80;60.40;;;;;;5004904;28;20453;-81
2023/08/12 10:16:45;;;;;;;10.00;4.73;;;28.70;60.30;;;;;;5003002;28;20464;-82
2023/08/12 10:19:11;;;;;;;5.77;4.13;;;28.80;60.70;;;;;;5005469;28;20469;-82
2023/08/12 10:21:38;;;;;;;10.53;4.30;;;29.00;59.20;;;;;;4996720;28;20470;-82
2023/08/12 10:24:07;;;;;;;6.27;4.40;;;29.20;58.80;;;;;;5000834;28;20426;-81
2023/08/12 10:26:33;;;;;;;6.00;4.60;;;29.30;58.70;;;;;;4996179;28;20441;-81
2023/08/12 10:28:59;;;;;;;6.97;4.80;;;29.40;59.20;;;;;;4993734;28;20791;-80
2023/08/12 10:31:28;;;;;;;7.63;5.07;;;29.50;58.80;;;;;;4987443;28;20449;-80
2023/08/12 10:33:56;;;;;;;5.60;4.20;;;29.80;58.00;;;;;;4991062;28;20454;-81
2023/08/12 10:36:22;;;;;;;6.77;4.67;;;29.50;58.50;;;;;;4991778;28;20446;-81
2023/08/12 10:38:48;;;;;;;6.17;4.63;;;29.70;58.20;;;;;;4993220;28;21270;-84
2023/08/12 10:41:22;;;;;;;7.70;5.30;;;30.00;59.10;;;;;;4987396;28;20458;-82
2023/08/12 10:44:03;;;;;;;10.90;5.00;;;30.20;57.60;;;;;;4996042;28;20194;-81
2023/08/12 10:46:33;;;;;;;7.83;4.60;;;30.50;54.40;;;;;;4998807;28;20511;-80
2023/08/12 10:49:11;;;;;;;6.20;4.63;;;30.60;55.00;;;;;;5000411;28;20418;-81
2023/08/12 10:51:46;;;;;;;6.60;4.40;;;30.60;54.20;;;;;;5002458;28;20449;-79
2023/08/12 10:54:31;;;;;;;6.73;4.77;;;30.30;54.80;;;;;;4994794;28;20920;-82
2023/08/12 10:57:03;;;;;;;5.23;4.20;;;30.40;54.90;;;;;;5000610;28;21014;-81
2023/08/12 10:59:51;;;;;;;5.37;4.90;;;30.50;54.80;;;;;;4998139;28;20457;-80
2023/08/12 11:02:30;;;;;;;6.70;5.00;;;30.90;53.80;;;;;;5014831;28;20538;-80
2023/08/12 11:05:08;;;;;;;10.23;5.07;;;31.00;54.00;;;;;;5001234;28;20426;-82
2023/08/12 11:07:43;;;;;;;7.30;4.83;;;31.20;53.70;;;;;;5008605;28;20414;-80
2023/08/12 11:10:25;;;;;;;6.97;5.30;;;31.10;53.60;;;;;;5003734;28;20943;-78
2023/08/12 11:12:58;;;;;;;6.90;4.60;;;31.10;53.40;;;;;;4991802;28;20480;-79
2023/08/12 11:15:43;;;;;;;8.23;5.20;;;30.80;53.70;;;;;;4994006;28;20509;-80
2023/08/12 11:18:12;;;;;;;9.20;4.90;;;30.60;54.00;;;;;;4999364;28;20465;-80
2023/08/12 11:20:39;;;;;;;6.63;4.43;;;30.50;53.60;;;;;;4992504;28;20472;-80
2023/08/12 11:23:08;;;;;;;9.63;4.40;;;30.60;53.00;;;;;;4985046;28;20552;-81
2023/08/12 11:25:35;;;;;;;6.47;4.37;;;30.90;52.10;;;;;;4998292;28;20412;-81
2023/08/12 11:28:01;;;;;;;9.97;4.70;;;31.30;52.80;;;;;;4996133;28;20461;-80
2023/08/12 11:30:27;;;;;;;8.30;4.20;;;31.20;52.50;;;;;;4995658;28;20461;-80
2023/08/12 11:32:55;;;;;;;7.30;4.20;;;31.00;53.30;;;;;;4989537;28;20758;-79
2023/08/12 11:35:22;;;;;;;6.70;4.53;;;30.90;53.70;;;;;;5001398;28;20211;-80
2023/08/12 11:37:50;;;;;;;7.10;4.70;;;30.80;53.40;;;;;;5011764;28;20504;-77
2023/08/12 11:40:17;;;;;;;6.20;4.50;;;30.60;54.40;;;;;;5004752;28;20508;-79
2023/08/12 11:42:46;;;;;;;5.60;4.90;;;30.70;54.40;;;;;;4999336;28;20419;-79
2023/08/12 11:45:13;;;;;;;5.97;4.90;;;31.00;54.10;;;;;;5007967;28;20422;-80
2023/08/12 11:47:40;;;;;;;5.70;4.70;;;31.40;53.70;;;;;;5003528;28;20473;-80
2023/08/12 11:50:07;;;;;;;6.63;4.70;;;31.70;53.30;;;;;;5003378;28;20481;-80
2023/08/12 11:52:36;;;;;;;11.50;5.43;;;31.80;52.90;;;;;;4999583;28;20441;-78
2023/08/12 11:55:03;;;;;;;7.43;4.93;;;32.10;53.00;;;;;;5007453;28;20421;-80
2023/08/12 11:57:29;;;;;;;6.40;4.40;;;32.20;52.60;;;;;;5005786;28;20513;-79
2023/08/12 12:00:18;;;;;;;7.10;4.97;;;32.30;52.90;;;;;;5003298;28;20485;-79
2023/08/12 12:02:49;;;;;;;9.37;4.87;;;32.30;52.00;;;;;;4993909;28;20414;-79
2023/08/12 12:05:16;;;;;;;6.00;4.97;;;32.00;52.50;;;;;;4999883;28;20650;-80
2023/08/12 12:07:43;;;;;;;6.53;4.87;;;31.70;53.30;;;;;;4993874;28;20434;-81
2023/08/12 12:10:17;;;;;;;6.83;6.13;;;31.30;54.00;;;;;;5012101;28;20470;-83
2023/08/12 12:12:44;;;;;;;10.90;7.00;;;30.20;59.60;;;;;;4998325;28;20418;-81
2023/08/12 12:15:12;;;;;;;12.07;7.87;;;29.40;62.20;;;;;;5001423;28;20478;-80
2023/08/12 12:17:41;;;;;;;14.70;7.53;;;29.00;63.20;;;;;;5007863;28;20473;-80
2023/08/12 12:20:11;;;;;;;11.40;6.30;;;27.70;64.50;;;;;;5006968;28;20462;-82
2023/08/12 12:22:37;;;;;;;9.60;6.00;;;27.20;65.30;;;;;;5003660;28;20433;-80
2023/08/12 12:25:08;;;;;;;11.50;6.70;;;26.80;66.00;;;;;;5001913;28;20439;-81
2023/08/12 12:27:37;;;;;;;10.37;6.80;;;26.80;67.00;;;;;;5002396;28;20443;-84
2023/08/12 12:30:05;;;;;;;12.37;7.40;;;26.10;70.10;;;;;;4999655;28;20829;-83
2023/08/12 12:32:31;;;;;;;11.30;6.80;;;25.60;72.90;;;;;;4998857;28;20428;-82
2023/08/12 12:34:59;;;;;;;13.90;7.30;;;25.30;73.90;;;;;;4998749;28;20448;-82
2023/08/12 12:37:24;;;;;;;9.17;6.80;;;25.10;73.70;;;;;;5003007;28;20482;-80
2023/08/12 12:39:50;;;;;;;11.30;7.40;;;24.80;74.90;;;;;;5010657;28;20430;-83